Time;durP1;ratioP1;P1;durP2;ratioP2;P2;SDS_P1;SDS_P2;PMS_P1;PMS_P2;Temp;Humidity;BMP_temperature;BMP_pressure;BME280_temperature;BME280_humidity;BME280_pressure;Samples;Min_cycle;Max_cycle;Signal;HPM_P1;HPM_P2
2021/04/25 00:25:49;;;;;;;1.75;1.60;;;;;;;;;;4710880;28;20143;-69
2021/04/25 00:28:16;;;;;;;2.00;1.70;;;;;;;;;;4136989;34;20194;-69
2021/04/25 00:30:42;;;;;;;1.70;1.55;;;;;;;;;;4134084;34;20520;-69
2021/04/25 00:33:08;;;;;;;1.87;1.70;;;;;;;;;;4123786;34;20104;-69
2021/04/25 00:35:35;;;;;;;2.00;1.77;;;;;;;;;;4123658;34;20449;-69
2021/04/25 00:38:01;;;;;;;1.70;1.60;;;;;;;;;;4123857;34;20613;-69
2021/04/25 00:40:27;;;;;;;1.65;1.50;;;;;;;;;;4122908;34;20538;-68
2021/04/25 00:42:53;;;;;;;1.50;1.40;;;;;;;;;;4111519;34;20127;-69
2021/04/25 00:45:19;;;;;;;1.77;1.67;;;;;;;;;;4123573;34;20099;-68
2021/04/25 00:47:46;;;;;;;1.60;1.50;;;;;;;;;;4123887;34;20534;-68
2021/04/25 00:50:13;;;;;;;2.62;1.80;;;;;;;;;;4123616;34;20115;-69
2021/04/25 00:52:44;;;;;;;2.75;1.60;;;;;;;;;;4111262;34;20215;-68
2021/04/25 00:55:10;;;;;;;1.98;1.80;;;;;;;;;;4123625;34;20107;-69
2021/04/25 00:57:36;;;;;;;2.08;1.87;;;;;;;;;;4123448;34;20113;-71
2021/04/25 01:00:06;;;;;;;2.00;1.80;;;;;;;;;;4123801;34;20119;-70
2021/04/25 01:02:31;;;;;;;2.20;1.65;;;;;;;;;;4123427;34;20513;-71
2021/04/25 01:04:57;;;;;;;1.80;1.62;;;;;;;;;;4111413;34;20221;-71
2021/04/25 01:07:23;;;;;;;4.07;2.28;;;;;;;;;;4111354;34;20509;-71
2021/04/25 01:09:49;;;;;;;2.25;2.00;;;;;;;;;;4123783;34;20183;-71
2021/04/25 01:12:15;;;;;;;1.75;1.65;;;;;;;;;;4111188;34;20123;-71
2021/04/25 01:14:41;;;;;;;1.60;1.50;;;;;;;;;;4123480;34;20135;-71
2021/04/25 01:17:07;;;;;;;2.12;1.73;;;;;;;;;;4123666;34;20500;-71
2021/04/25 01:19:33;;;;;;;2.53;1.65;;;;;;;;;;4123442;34;20201;-71
2021/04/25 01:21:58;;;;;;;1.77;1.67;;;;;;;;;;4123456;34;20539;-71
2021/04/25 01:24:24;;;;;;;2.10;1.90;;;;;;;;;;4123535;34;20119;-71
2021/04/25 01:26:50;;;;;;;1.73;1.62;;;;;;;;;;4122858;34;20175;-71
2021/04/25 01:29:16;;;;;;;2.28;1.62;;;;;;;;;;4123287;34;20130;-71
2021/04/25 01:31:42;;;;;;;2.20;2.00;;;;;;;;;;4123227;34;20534;-71
2021/04/25 01:34:08;;;;;;;2.28;2.08;;;;;;;;;;4110857;34;20128;-71
2021/04/25 01:36:34;;;;;;;1.87;1.77;;;;;;;;;;4110682;34;20448;-71
2021/04/25 01:39:00;;;;;;;2.50;2.08;;;;;;;;;;4123204;34;20124;-71
2021/04/25 01:41:26;;;;;;;3.30;1.92;;;;;;;;;;4123156;34;20143;-71
2021/04/25 01:43:52;;;;;;;3.53;2.12;;;;;;;;;;4123240;34;20537;-71
2021/04/25 01:46:18;;;;;;;2.40;1.90;;;;;;;;;;4110793;34;20551;-71
2021/04/25 01:48:44;;;;;;;2.30;2.10;;;;;;;;;;4123129;34;20155;-71
2021/04/25 01:51:10;;;;;;;2.85;2.10;;;;;;;;;;4122912;34;20134;-71
2021/04/25 01:53:36;;;;;;;2.30;2.10;;;;;;;;;;4125218;34;20209;-71
2021/04/25 01:56:03;;;;;;;2.58;2.17;;;;;;;;;;4112601;34;20123;-71
2021/04/25 01:58:29;;;;;;;2.20;2.00;;;;;;;;;;4112788;34;20142;-71
2021/04/25 02:00:55;;;;;;;2.10;1.90;;;;;;;;;;4112519;34;20116;-71
2021/04/25 02:03:21;;;;;;;3.00;2.17;;;;;;;;;;4125060;34;20480;-71
2021/04/25 02:05:46;;;;;;;2.20;2.00;;;;;;;;;;4112552;34;20119;-71
2021/04/25 02:08:13;;;;;;;2.75;1.98;;;;;;;;;;4125007;34;20552;-71
2021/04/25 02:10:40;;;;;;;3.55;2.20;;;;;;;;;;4112878;34;20124;-71
2021/04/25 02:13:06;;;;;;;2.40;2.20;;;;;;;;;;4125023;34;20532;-71
2021/04/25 02:15:32;;;;;;;2.45;1.92;;;;;;;;;;4101581;34;20178;-71
2021/04/25 02:17:58;;;;;;;2.30;2.10;;;;;;;;;;4112432;34;20146;-71
2021/04/25 02:20:24;;;;;;;2.65;2.03;;;;;;;;;;4112622;34;20127;-71
2021/04/25 02:22:52;;;;;;;2.67;2.03;;;;;;;;;;4124891;34;20207;-70
2021/04/25 02:25:18;;;;;;;2.03;1.83;;;;;;;;;;4112426;34;20236;-71
2021/04/25 02:27:44;;;;;;;2.80;2.10;;;;;;;;;;4101197;34;20108;-71
2021/04/25 02:30:12;;;;;;;2.45;1.85;;;;;;;;;;4112349;34;20135;-71
2021/04/25 02:32:38;;;;;;;2.40;2.15;;;;;;;;;;4112368;34;20244;-71
2021/04/25 02:35:05;;;;;;;2.85;2.00;;;;;;;;;;4112623;34;20127;-71
2021/04/25 02:37:31;;;;;;;2.60;2.20;;;;;;;;;;4124776;34;20104;-71
2021/04/25 02:39:57;;;;;;;3.78;2.40;;;;;;;;;;4112368;34;20112;-71
2021/04/25 02:42:23;;;;;;;2.20;2.00;;;;;;;;;;4112537;34;20199;-70
2021/04/25 02:44:49;;;;;;;2.67;2.37;;;;;;;;;;4124718;34;20502;-70
2021/04/25 02:47:15;;;;;;;2.72;2.12;;;;;;;;;;4112354;34;20138;-71
2021/04/25 02:49:41;;;;;;;3.03;1.90;;;;;;;;;;4124765;34;20223;-70
2021/04/25 02:52:07;;;;;;;4.20;2.87;;;;;;;;;;4124671;34;20106;-70
2021/04/25 02:54:33;;;;;;;3.05;2.60;;;;;;;;;;4112227;34;20607;-71
2021/04/25 02:57:00;;;;;;;2.47;2.28;;;;;;;;;;4124591;34;20109;-70
2021/04/25 02:59:25;;;;;;;3.92;2.37;;;;;;;;;;4112268;34;20150;-70
2021/04/25 03:01:52;;;;;;;3.37;2.17;;;;;;;;;;4112098;34;20141;-70
2021/04/25 03:04:18;;;;;;;2.70;2.10;;;;;;;;;;4124119;34;20131;-70
2021/04/25 03:06:43;;;;;;;2.60;2.22;;;;;;;;;;4124644;34;20100;-70
2021/04/25 03:09:10;;;;;;;2.83;2.22;;;;;;;;;;4124479;34;20139;-70
2021/04/25 03:11:36;;;;;;;2.97;2.33;;;;;;;;;;4125014;34;20115;-70
2021/04/25 03:14:01;;;;;;;3.03;2.35;;;;;;;;;;4124557;34;20461;-70
2021/04/25 03:16:27;;;;;;;5.32;2.55;;;;;;;;;;4124315;34;20127;-70
2021/04/25 03:18:53;;;;;;;3.65;2.40;;;;;;;;;;4112099;34;20585;-70
2021/04/25 03:21:19;;;;;;;2.28;2.05;;;;;;;;;;4124322;34;20487;-70
2021/04/25 03:23:45;;;;;;;2.67;2.40;;;;;;;;;;4124534;34;20123;-70
2021/04/25 03:26:11;;;;;;;2.58;2.37;;;;;;;;;;4124173;34;20793;-70
2021/04/25 03:28:37;;;;;;;2.53;2.30;;;;;;;;;;4124271;34;20124;-70
2021/04/25 03:31:03;;;;;;;3.90;2.58;;;;;;;;;;4124483;34;20097;-71
2021/04/25 03:33:29;;;;;;;3.70;2.37;;;;;;;;;;4124528;34;20488;-71
2021/04/25 03:35:55;;;;;;;4.57;2.47;;;;;;;;;;4101566;34;20187;-70
2021/04/25 03:38:21;;;;;;;2.35;2.15;;;;;;;;;;4124467;34;20120;-70
2021/04/25 03:40:47;;;;;;;2.60;2.40;;;;;;;;;;4127909;34;20112;-70
2021/04/25 03:43:12;;;;;;;2.33;2.12;;;;;;;;;;4120448;34;20150;-70
2021/04/25 03:45:38;;;;;;;2.62;2.33;;;;;;;;;;4133384;34;20453;-70
2021/04/25 03:48:04;;;;;;;2.97;2.30;;;;;;;;;;4136200;34;20131;-70
2021/04/25 03:50:30;;;;;;;3.12;2.83;;;;;;;;;;4131694;34;20153;-71
2021/04/25 03:52:56;;;;;;;4.18;2.95;;;;;;;;;;4125940;34;20313;-70
2021/04/25 03:55:24;;;;;;;2.42;2.22;;;;;;;;;;4124948;34;20700;-70
2021/04/25 03:57:50;;;;;;;3.00;2.10;;;;;;;;;;4124387;34;20549;-70
2021/04/25 04:00:17;;;;;;;2.30;2.10;;;;;;;;;;4111846;34;20240;-70
2021/04/25 04:02:43;;;;;;;2.95;2.60;;;;;;;;;;4113894;34;20275;-70
2021/04/25 04:05:10;;;;;;;4.60;2.67;;;;;;;;;;4101226;34;20135;-69
2021/04/25 04:07:36;;;;;;;4.40;2.20;;;;;;;;;;4124357;34;20549;-70
2021/04/25 04:10:03;;;;;;;2.80;2.30;;;;;;;;;;4124081;34;20134;-71
2021/04/25 04:12:29;;;;;;;2.35;2.10;;;;;;;;;;4124090;34;20106;-70
2021/04/25 04:14:55;;;;;;;4.62;2.12;;;;;;;;;;4111687;34;20150;-70
2021/04/25 04:17:21;;;;;;;2.35;1.90;;;;;;;;;;4124019;34;20140;-70
2021/04/25 04:19:47;;;;;;;1.92;1.73;;;;;;;;;;4111494;34;20120;-70
2021/04/25 04:22:13;;;;;;;2.75;2.00;;;;;;;;;;4124536;34;20305;-70
2021/04/25 04:24:39;;;;;;;3.25;2.05;;;;;;;;;;4125924;34;20116;-68
2021/04/25 04:27:05;;;;;;;2.53;1.92;;;;;;;;;;4124061;34;20641;-67
2021/04/25 04:29:32;;;;;;;2.75;1.80;;;;;;;;;;4123806;34;20211;-68
2021/04/25 04:31:59;;;;;;;2.60;1.98;;;;;;;;;;4124230;34;20143;-67
2021/04/25 04:34:25;;;;;;;2.03;1.83;;;;;;;;;;4111449;34;20142;-68
2021/04/25 04:36:51;;;;;;;2.12;1.83;;;;;;;;;;4124232;34;20104;-67
2021/04/25 04:39:17;;;;;;;2.10;1.87;;;;;;;;;;4124287;34;20524;-68
2021/04/25 04:41:43;;;;;;;2.35;1.90;;;;;;;;;;4112042;34;20107;-68
2021/04/25 04:44:09;;;;;;;2.37;1.83;;;;;;;;;;4124522;34;20116;-68
2021/04/25 04:46:35;;;;;;;2.40;2.17;;;;;;;;;;4124302;34;20146;-69
2021/04/25 04:49:00;;;;;;;2.72;2.00;;;;;;;;;;4124528;34;20135;-68
2021/04/25 04:51:26;;;;;;;2.12;2.00;;;;;;;;;;4124517;34;20139;-68
2021/04/25 04:53:52;;;;;;;3.95;2.20;;;;;;;;;;4123541;34;20208;-68
2021/04/25 04:56:18;;;;;;;2.53;1.80;;;;;;;;;;4123268;34;20133;-68
2021/04/25 04:58:44;;;;;;;3.50;2.25;;;;;;;;;;4100312;34;20493;-68
2021/04/25 05:01:10;;;;;;;3.20;2.00;;;;;;;;;;4122115;34;20214;-68
2021/04/25 05:03:36;;;;;;;3.20;2.20;;;;;;;;;;4111482;34;20131;-68
2021/04/25 05:06:01;;;;;;;3.70;2.55;;;;;;;;;;4123639;34;20140;-68
2021/04/25 05:08:27;;;;;;;2.72;1.95;;;;;;;;;;4123718;34;20530;-68
2021/04/25 05:10:53;;;;;;;3.78;2.53;;;;;;;;;;4124106;34;20230;-68
2021/04/25 05:13:19;;;;;;;2.35;2.05;;;;;;;;;;4123716;34;20341;-68
2021/04/25 05:15:45;;;;;;;3.00;1.98;;;;;;;;;;4124456;34;20520;-68
2021/04/25 05:18:11;;;;;;;2.33;2.08;;;;;;;;;;4124694;34;20099;-68
2021/04/25 05:20:38;;;;;;;4.40;2.03;;;;;;;;;;4124473;34;20151;-68
2021/04/25 05:23:05;;;;;;;2.90;1.70;;;;;;;;;;4125556;34;20206;-68
2021/04/25 05:25:32;;;;;;;4.05;1.90;;;;;;;;;;4123237;34;20536;-69
2021/04/25 05:27:57;;;;;;;1.70;1.60;;;;;;;;;;4122676;34;20127;-69
2021/04/25 05:30:23;;;;;;;3.00;1.70;;;;;;;;;;4123569;34;20219;-68
2021/04/25 05:32:49;;;;;;;2.97;1.60;;;;;;;;;;4123110;34;20191;-68
2021/04/25 05:35:15;;;;;;;3.12;1.52;;;;;;;;;;4123143;34;20140;-68
2021/04/25 05:37:41;;;;;;;1.60;1.48;;;;;;;;;;4123251;34;20207;-68
2021/04/25 05:40:09;;;;;;;4.05;1.95;;;;;;;;;;4123341;34;20253;-68
2021/04/25 05:42:34;;;;;;;3.83;1.67;;;;;;;;;;4123236;34;20520;-68
2021/04/25 05:45:00;;;;;;;2.30;1.83;;;;;;;;;;4110814;34;20119;-68
2021/04/25 05:47:27;;;;;;;3.12;1.50;;;;;;;;;;4110643;34;20120;-69
2021/04/25 05:49:53;;;;;;;2.87;1.50;;;;;;;;;;4110836;34;20111;-68
2021/04/25 05:52:18;;;;;;;5.62;1.77;;;;;;;;;;4110474;34;20126;-68
2021/04/25 05:54:44;;;;;;;2.22;1.60;;;;;;;;;;4123166;34;20127;-69
2021/04/25 05:57:10;;;;;;;31.65;2.97;;;;;;;;;;4121684;34;20159;-69
2021/04/25 05:59:36;;;;;;;2.95;1.80;;;;;;;;;;4110568;34;20573;-69
2021/04/25 06:02:03;;;;;;;1.62;1.48;;;;;;;;;;4110862;34;20500;-69
2021/04/25 06:04:30;;;;;;;1.92;1.55;;;;;;;;;;4123281;34;20114;-68
2021/04/25 06:06:56;;;;;;;3.83;1.95;;;;;;;;;;4122980;34;20212;-69
2021/04/25 06:09:21;;;;;;;2.05;1.70;;;;;;;;;;4123051;34;20139;-69
2021/04/25 06:11:47;;;;;;;1.75;1.48;;;;;;;;;;4122835;34;20127;-69
2021/04/25 06:14:13;;;;;;;2.00;1.83;;;;;;;;;;4122946;34;20124;-68
2021/04/25 06:16:39;;;;;;;2.50;1.80;;;;;;;;;;4122878;34;20549;-69
2021/04/25 06:19:05;;;;;;;1.92;1.73;;;;;;;;;;4123076;34;20112;-69
2021/04/25 06:21:31;;;;;;;2.53;1.98;;;;;;;;;;4110401;34;20103;-69
2021/04/25 06:23:57;;;;;;;3.97;1.60;;;;;;;;;;4099623;34;20104;-69
2021/04/25 06:26:23;;;;;;;4.18;1.85;;;;;;;;;;4122489;34;20133;-69
2021/04/25 06:28:49;;;;;;;1.80;1.60;;;;;;;;;;4122924;34;20254;-69
2021/04/25 06:31:15;;;;;;;4.95;1.58;;;;;;;;;;4110585;34;20143;-69
2021/04/25 06:33:41;;;;;;;2.80;1.80;;;;;;;;;;4122985;34;20442;-69
2021/04/25 06:36:07;;;;;;;3.15;1.40;;;;;;;;;;4110265;34;20100;-69
2021/04/25 06:38:33;;;;;;;2.25;1.60;;;;;;;;;;4123986;34;20266;-69
2021/04/25 06:40:59;;;;;;;2.42;1.50;;;;;;;;;;4124686;34;20460;-69
2021/04/25 06:43:25;;;;;;;2.70;1.40;;;;;;;;;;4124656;34;20214;-69
2021/04/25 06:45:51;;;;;;;4.18;1.87;;;;;;;;;;4101623;34;20218;-69
2021/04/25 06:48:17;;;;;;;2.55;1.50;;;;;;;;;;4113031;34;20183;-69
2021/04/25 06:50:43;;;;;;;1.90;1.35;;;;;;;;;;4125179;34;20198;-69
2021/04/25 06:53:09;;;;;;;8.82;1.83;;;;;;;;;;4124772;34;20108;-69
2021/04/25 06:55:35;;;;;;;1.45;1.35;;;;;;;;;;4101095;34;20267;-69
2021/04/25 06:58:01;;;;;;;3.75;1.80;;;;;;;;;;4124705;34;20451;-68
2021/04/25 07:00:27;;;;;;;2.08;1.60;;;;;;;;;;4123437;34;20139;-68
2021/04/25 07:02:54;;;;;;;1.55;1.20;;;;;;;;;;4124595;34;20128;-69
2021/04/25 07:05:20;;;;;;;4.20;3.37;;;;;;;;;;4124498;34;20120;-69
2021/04/25 07:07:46;;;;;;;2.97;1.40;;;;;;;;;;4124481;34;20496;-69
2021/04/25 07:10:12;;;;;;;3.03;1.40;;;;;;;;;;4124455;34;20217;-69
2021/04/25 07:12:37;;;;;;;2.58;1.67;;;;;;;;;;4124662;34;20174;-69
2021/04/25 07:15:05;;;;;;;1.52;1.42;;;;;;;;;;4124536;34;20139;-69
2021/04/25 07:17:31;;;;;;;2.55;1.40;;;;;;;;;;4124469;34;20153;-69
2021/04/25 07:19:57;;;;;;;2.22;1.33;;;;;;;;;;4124473;34;20120;-69
2021/04/25 07:22:23;;;;;;;1.55;1.30;;;;;;;;;;4124081;34;20118;-69
2021/04/25 07:24:49;;;;;;;1.42;1.30;;;;;;;;;;4124615;34;20135;-69
2021/04/25 07:27:19;;;;;;;2.25;1.40;;;;;;;;;;4124149;34;20123;-69
2021/04/25 07:29:45;;;;;;;1.65;1.55;;;;;;;;;;4124246;34;20187;-69
2021/04/25 07:32:11;;;;;;;5.18;1.50;;;;;;;;;;4124312;34;20119;-68
2021/04/25 07:34:37;;;;;;;1.92;1.30;;;;;;;;;;4111984;34;20613;-69
2021/04/25 07:37:04;;;;;;;6.72;1.65;;;;;;;;;;4124452;34;20107;-69
2021/04/25 07:39:34;;;;;;;1.75;1.40;;;;;;;;;;4124379;34;20496;-69
2021/04/25 07:42:00;;;;;;;2.83;1.42;;;;;;;;;;4112236;34;20104;-68
2021/04/25 07:44:26;;;;;;;1.98;1.80;;;;;;;;;;4125500;34;20099;-68
2021/04/25 07:46:52;;;;;;;2.12;1.70;;;;;;;;;;4124904;34;20099;-68
2021/04/25 07:49:18;;;;;;;3.37;1.67;;;;;;;;;;4124567;34;20600;-68
2021/04/25 07:51:43;;;;;;;1.45;1.35;;;;;;;;;;4116463;34;20115;-66
2021/04/25 07:54:10;;;;;;;1.40;1.30;;;;;;;;;;4132806;34;20119;-67
2021/04/25 07:56:36;;;;;;;2.92;1.48;;;;;;;;;;4134070;34;20171;-67
2021/04/25 07:59:02;;;;;;;2.10;1.60;;;;;;;;;;4133954;34;20172;-67
2021/04/25 08:01:29;;;;;;;2.87;1.42;;;;;;;;;;4129563;34;20135;-69
2021/04/25 08:03:57;;;;;;;1.75;1.65;;;;;;;;;;4126181;34;20116;-68
2021/04/25 08:06:25;;;;;;;5.82;1.73;;;;;;;;;;4125614;34;20220;-68
2021/04/25 08:08:54;;;;;;;1.60;1.48;;;;;;;;;;4124658;34;20546;-68
2021/04/25 08:11:20;;;;;;;2.40;1.60;;;;;;;;;;4112311;34;20539;-69
2021/04/25 08:13:46;;;;;;;1.50;1.40;;;;;;;;;;4124217;34;20115;-68
2021/04/25 08:16:12;;;;;;;6.70;1.85;;;;;;;;;;4124191;34;20516;-68
2021/04/25 08:18:38;;;;;;;2.87;1.73;;;;;;;;;;4124914;34;20135;-68
2021/04/25 08:21:05;;;;;;;1.77;1.45;;;;;;;;;;4124359;34;20583;-69
2021/04/25 08:23:31;;;;;;;1.42;1.30;;;;;;;;;;4124302;34;20115;-69
2021/04/25 08:25:56;;;;;;;6.95;2.08;;;;;;;;;;4123960;34;20138;-68
2021/04/25 08:28:24;;;;;;;1.85;1.40;;;;;;;;;;4124054;34;20102;-68
2021/04/25 08:30:51;;;;;;;2.08;1.87;;;;;;;;;;4124440;34;20111;-68
2021/04/25 08:33:17;;;;;;;1.85;1.45;;;;;;;;;;4111672;34;20597;-68
2021/04/25 08:35:43;;;;;;;3.83;1.55;;;;;;;;;;4123935;34;20128;-68
2021/04/25 08:38:09;;;;;;;1.50;1.40;;;;;;;;;;4123596;34;20111;-69
2021/04/25 08:40:35;;;;;;;3.62;1.50;;;;;;;;;;4123691;34;20106;-69
2021/04/25 08:43:01;;;;;;;8.90;1.80;;;;;;;;;;4111337;34;20547;-69
2021/04/25 08:45:27;;;;;;;4.57;2.08;;;;;;;;;;4100542;34;20150;-69
2021/04/25 08:47:58;;;;;;;3.75;2.95;;;;;;;;;;4111391;34;20550;-68
2021/04/25 08:50:25;;;;;;;4.55;1.55;;;;;;;;;;4111341;34;20096;-68
2021/04/25 08:52:51;;;;;;;1.62;1.35;;;;;;;;;;4123659;34;20281;-68
2021/04/25 08:55:17;;;;;;;1.80;1.60;;;;;;;;;;4123628;34;20126;-69
2021/04/25 08:57:43;;;;;;;1.62;1.52;;;;;;;;;;4123488;34;20123;-68
2021/04/25 09:00:09;;;;;;;4.50;1.42;;;;;;;;;;4111326;34;20123;-68
2021/04/25 09:02:35;;;;;;;1.60;1.20;;;;;;;;;;4122862;34;20135;-68
2021/04/25 09:05:02;;;;;;;1.67;1.58;;;;;;;;;;4123637;34;20228;-68
2021/04/25 09:07:27;;;;;;;2.12;1.40;;;;;;;;;;4123387;34;20132;-68
2021/04/25 09:09:55;;;;;;;3.67;1.58;;;;;;;;;;4123943;34;20456;-68
2021/04/25 09:12:39;;;;;;;1.90;1.50;;;;;;;;;;4123353;34;20112;-68
2021/04/25 09:15:11;;;;;;;2.08;1.52;;;;;;;;;;4123405;34;20096;-68
2021/04/25 09:17:59;;;;;;;1.80;1.70;;;;;;;;;;4123223;34;20508;-68
2021/04/25 09:20:46;;;;;;;1.98;1.50;;;;;;;;;;4110979;34;20139;-68
2021/04/25 09:23:13;;;;;;;1.48;1.17;;;;;;;;;;4112073;34;20104;-68
2021/04/25 09:25:40;;;;;;;1.95;1.70;;;;;;;;;;4123189;34;20119;-68
2021/04/25 09:28:10;;;;;;;3.72;1.60;;;;;;;;;;4111144;34;20127;-68
2021/04/25 09:30:36;;;;;;;2.58;1.73;;;;;;;;;;4123342;34;20112;-69
2021/04/25 09:33:08;;;;;;;1.70;1.60;;;;;;;;;;4123317;34;20126;-68
2021/04/25 09:35:34;;;;;;;2.12;1.42;;;;;;;;;;4122577;34;20197;-67
2021/04/25 09:38:11;;;;;;;4.12;1.62;;;;;;;;;;4123036;34;20443;-67
2021/04/25 09:40:45;;;;;;;1.55;1.33;;;;;;;;;;4123006;34;20101;-67
2021/04/25 09:43:12;;;;;;;3.05;1.67;;;;;;;;;;4123356;34;20206;-65
2021/04/25 09:45:44;;;;;;;2.12;1.50;;;;;;;;;;4123043;34;20122;-67
2021/04/25 09:48:21;;;;;;;2.95;1.80;;;;;;;;;;4123375;34;20506;-70
2021/04/25 09:51:23;;;;;;;1.98;1.50;;;;;;;;;;4099962;34;20192;-68
2021/04/25 09:53:57;;;;;;;2.42;1.60;;;;;;;;;;4110203;34;20120;-67
2021/04/25 09:56:24;;;;;;;3.53;2.03;;;;;;;;;;4112264;34;20120;-68
2021/04/25 09:58:56;;;;;;;1.95;1.40;;;;;;;;;;4099697;34;20099;-67
2021/04/25 10:01:36;;;;;;;2.65;1.62;;;;;;;;;;4112256;34;20506;-67
2021/04/25 10:04:04;;;;;;;2.08;1.62;;;;;;;;;;4112334;34;20116;-69
2021/04/25 10:06:50;;;;;;;2.75;1.40;;;;;;;;;;4099638;34;20124;-67
2021/04/25 10:09:17;;;;;;;2.12;1.70;;;;;;;;;;4115701;34;20126;-67
2021/04/25 10:11:42;;;;;;;1.50;1.40;;;;;;;;;;4123247;34;20090;-69
2021/04/25 10:14:10;;;;;;;2.80;1.37;;;;;;;;;;4124794;34;20145;-68
2021/04/25 10:16:37;;;;;;;1.87;1.40;;;;;;;;;;4125117;34;20106;-69
2021/04/25 10:19:03;;;;;;;4.12;1.40;;;;;;;;;;4112642;34;20116;-69
2021/04/25 10:21:29;;;;;;;1.45;1.30;;;;;;;;;;4124922;34;20118;-69
2021/04/25 10:23:55;;;;;;;1.92;1.60;;;;;;;;;;4112557;34;20176;-68
2021/04/25 10:26:22;;;;;;;5.25;1.77;;;;;;;;;;4101242;34;20251;-68
2021/04/25 10:28:58;;;;;;;3.10;1.37;;;;;;;;;;4107061;34;20114;-69
2021/04/25 10:31:28;;;;;;;2.47;1.50;;;;;;;;;;4100001;34;20099;-69
2021/04/25 10:34:00;;;;;;;2.87;1.23;;;;;;;;;;4102276;34;20124;-67
2021/04/25 10:36:44;;;;;;;3.65;1.73;;;;;;;;;;4118768;34;20118;-67
2021/04/25 10:39:47;;;;;;;1.52;1.40;;;;;;;;;;4124389;34;20103;-68
2021/04/25 10:42:16;;;;;;;5.05;1.60;;;;;;;;;;4124545;34;20103;-68
2021/04/25 10:44:58;;;;;;;3.05;1.85;;;;;;;;;;4124766;34;20116;-68
2021/04/25 10:47:24;;;;;;;5.43;1.48;;;;;;;;;;4124638;34;20183;-68
2021/04/25 10:49:50;;;;;;;1.60;1.20;;;;;;;;;;4124695;34;20548;-67
2021/04/25 10:52:19;;;;;;;4.68;1.60;;;;;;;;;;4124516;34;20126;-68
2021/04/25 10:55:16;;;;;;;4.55;1.45;;;;;;;;;;4124444;34;20123;-68
2021/04/25 10:57:59;;;;;;;3.22;1.65;;;;;;;;;;4121182;34;20385;-68
2021/04/25 11:00:35;;;;;;;2.00;1.40;;;;;;;;;;4123939;34;20131;-68
2021/04/25 11:03:00;;;;;;;;;;;;;;;;;;4124775;34;20126;-68
2021/04/25 11:05:35;;;;;;;2.35;1.40;;;;;;;;;;4124485;34;20015;-68
2021/04/25 11:08:05;;;;;;;3.70;1.55;;;;;;;;;;4124569;34;20135;-68
2021/04/25 11:11:07;;;;;;;1.60;1.30;;;;;;;;;;4124374;34;20513;-68
2021/04/25 11:13:33;;;;;;;3.67;1.50;;;;;;;;;;4124472;34;20148;-67
2021/04/25 11:16:15;;;;;;;1.58;1.35;;;;;;;;;;4124322;34;20111;-67
2021/04/25 11:18:49;;;;;;;1.50;1.40;;;;;;;;;;4124555;34;20204;-67
2021/04/25 11:21:43;;;;;;;1.98;1.40;;;;;;;;;;4124425;34;20104;-67
2021/04/25 11:24:09;;;;;;;1.48;1.30;;;;;;;;;;4112005;34;20120;-67
2021/04/25 11:29:07;;;;;;;1.60;1.50;;;;;;;;;;4124657;34;20107;-67
2021/04/25 11:31:57;;;;;;;2.40;1.50;;;;;;;;;;4124222;34;20225;-67
2021/04/25 11:34:23;;;;;;;3.08;1.33;;;;;;;;;;4124301;34;20108;-67
2021/04/25 11:36:49;;;;;;;2.60;1.70;;;;;;;;;;4124193;34;20376;-67
2021/04/25 11:39:16;;;;;;;5.60;2.50;;;;;;;;;;4124352;34;20124;-69
2021/04/25 11:41:46;;;;;;;5.57;1.90;;;;;;;;;;4124196;34;20104;-68
2021/04/25 11:44:12;;;;;;;1.92;1.70;;;;;;;;;;4111755;34;20528;-68
2021/04/25 11:46:37;;;;;;;1.77;1.50;;;;;;;;;;4111971;34;20146;-68
2021/04/25 11:49:04;;;;;;;2.25;1.45;;;;;;;;;;4124255;34;20135;-67
2021/04/25 11:51:30;;;;;;;2.50;1.23;;;;;;;;;;4124101;34;20559;-67
2021/04/25 11:53:56;;;;;;;4.37;1.75;;;;;;;;;;4124353;34;20116;-68
2021/04/25 11:56:32;;;;;;;1.50;1.20;;;;;;;;;;4123950;34;20123;-67
2021/04/25 11:59:07;;;;;;;2.92;1.50;;;;;;;;;;4124239;34;20127;-68
2021/04/25 12:01:34;;;;;;;4.22;1.65;;;;;;;;;;4124065;34;20132;-67
2021/04/25 12:04:00;;;;;;;8.23;2.00;;;;;;;;;;4112072;34;20522;-68
2021/04/25 12:06:26;;;;;;;1.45;1.35;;;;;;;;;;4111753;34;20100;-68
2021/04/25 12:08:55;;;;;;;3.72;1.52;;;;;;;;;;4124039;34;20122;-68
2021/04/25 12:11:24;;;;;;;6.28;1.98;;;;;;;;;;4111654;34;20119;-67
2021/04/25 12:13:51;;;;;;;2.33;1.90;;;;;;;;;;4123960;34;20095;-69
2021/04/25 12:16:20;;;;;;;4.07;1.62;;;;;;;;;;4124085;34;20208;-67
2021/04/25 12:18:46;;;;;;;1.98;1.55;;;;;;;;;;4123929;34;20116;-67
2021/04/25 12:21:16;;;;;;;1.70;1.60;;;;;;;;;;4123750;34;20219;-68
2021/04/25 12:23:50;;;;;;;2.60;1.90;;;;;;;;;;4124022;34;20680;-67
2021/04/25 12:26:17;;;;;;;1.30;1.20;;;;;;;;;;4123707;34;20540;-68
2021/04/25 12:28:48;;;;;;;1.92;1.50;;;;;;;;;;4123987;34;20236;-69
2021/04/25 12:31:16;;;;;;;2.50;1.50;;;;;;;;;;4123779;34;20168;-69
2021/04/25 12:33:51;;;;;;;4.72;2.00;;;;;;;;;;4124057;34;20492;-69
2021/04/25 12:36:18;;;;;;;1.95;1.67;;;;;;;;;;4123438;34;20605;-69
2021/04/25 12:39:14;;;;;;;3.22;1.60;;;;;;;;;;4123747;34;20164;-69
2021/04/25 12:41:41;;;;;;;3.73;1.57;;;;;;;;;;4114913;34;20088;-68
2021/04/25 12:44:07;;;;;;;6.18;1.70;;;;;;;;;;4123799;34;20115;-69
2021/04/25 12:46:33;;;;;;;2.60;1.33;;;;;;;;;;4123686;34;20114;-68
2021/04/25 12:48:59;;;;;;;3.25;1.37;;;;;;;;;;4123662;34;20114;-69
2021/04/25 12:51:29;;;;;;;2.35;1.60;;;;;;;;;;4124044;34;20112;-69
2021/04/25 12:54:00;;;;;;;7.50;2.70;;;;;;;;;;4123982;34;20119;-67
2021/04/25 12:56:51;;;;;;;2.17;1.48;;;;;;;;;;4123736;34;20123;-68
2021/04/25 12:59:32;;;;;;;2.92;1.52;;;;;;;;;;4123805;34;20122;-68
2021/04/25 13:02:00;;;;;;;2.28;1.30;;;;;;;;;;4123939;34;20584;-68
2021/04/25 13:04:42;;;;;;;1.50;1.40;;;;;;;;;;4123503;34;20115;-67
2021/04/25 13:07:20;;;;;;;2.40;1.50;;;;;;;;;;4123565;34;20134;-67
2021/04/25 13:10:13;;;;;;;3.50;1.50;;;;;;;;;;4123581;34;20177;-67
2021/04/25 13:12:40;;;;;;;4.37;1.58;;;;;;;;;;4123617;34;20241;-68
2021/04/25 13:15:14;;;;;;;3.03;1.50;;;;;;;;;;4123868;34;20088;-67
2021/04/25 13:17:41;;;;;;;1.77;1.50;;;;;;;;;;4123513;34;20516;-67
2021/04/25 13:20:22;;;;;;;3.08;1.40;;;;;;;;;;4123367;34;20124;-68
2021/04/25 13:22:57;;;;;;;2.33;1.52;;;;;;;;;;4110894;34;20203;-67
2021/04/25 13:25:24;;;;;;;4.12;1.40;;;;;;;;;;4123624;34;20240;-67
2021/04/25 13:27:50;;;;;;;2.08;1.65;;;;;;;;;;4123241;34;20116;-68
2021/04/25 13:30:17;;;;;;;1.92;1.67;;;;;;;;;;4123291;34;20120;-67
2021/04/25 13:32:42;;;;;;;1.75;1.40;;;;;;;;;;4123303;34;20118;-67
2021/04/25 13:35:09;;;;;;;1.42;1.33;;;;;;;;;;4123392;34;20097;-68
2021/04/25 13:37:35;;;;;;;1.40;1.20;;;;;;;;;;4119188;34;20532;-68
2021/04/25 13:40:01;;;;;;;1.80;1.33;;;;;;;;;;4122851;34;20135;-69
2021/04/25 13:42:28;;;;;;;8.43;1.95;;;;;;;;;;4115713;34;20695;-67
2021/04/25 13:44:54;;;;;;;2.78;1.50;;;;;;;;;;4108459;34;20120;-67
2021/04/25 13:47:20;;;;;;;1.98;1.37;;;;;;;;;;4108246;34;20203;-68
2021/04/25 13:49:46;;;;;;;3.42;1.50;;;;;;;;;;4123914;34;20213;-67
2021/04/25 13:52:12;;;;;;;2.00;1.70;;;;;;;;;;4122091;34;20107;-67
2021/04/25 13:54:37;;;;;;;5.93;1.70;;;;;;;;;;4113151;34;20232;-68
2021/04/25 13:57:04;;;;;;;1.77;1.52;;;;;;;;;;4111929;34;20123;-68
2021/04/25 13:59:29;;;;;;;2.78;1.50;;;;;;;;;;4124103;34;20135;-67
2021/04/25 14:01:55;;;;;;;3.33;1.55;;;;;;;;;;4125004;34;20123;-67
2021/04/25 14:04:21;;;;;;;2.28;1.42;;;;;;;;;;4124615;34;20133;-67
2021/04/25 14:06:49;;;;;;;1.62;1.40;;;;;;;;;;4124847;34;20505;-67
2021/04/25 14:09:16;;;;;;;4.05;1.60;;;;;;;;;;4113730;34;20104;-67
2021/04/25 14:11:42;;;;;;;5.28;1.55;;;;;;;;;;4111732;34;20120;-66
2021/04/25 14:14:08;;;;;;;3.30;1.40;;;;;;;;;;4111428;34;20113;-66
2021/04/25 14:16:34;;;;;;;1.80;1.40;;;;;;;;;;4111442;34;20127;-65
2021/04/25 14:19:00;;;;;;;3.28;1.73;;;;;;;;;;4098852;34;20179;-66
2021/04/25 14:21:30;;;;;;;1.75;1.48;;;;;;;;;;4111631;34;20131;-64
2021/04/25 14:23:58;;;;;;;5.30;1.62;;;;;;;;;;4111399;34;20109;-66
2021/04/25 14:26:25;;;;;;;2.40;1.60;;;;;;;;;;4111628;34;20220;-67
2021/04/25 14:28:52;;;;;;;2.78;1.60;;;;;;;;;;4111454;34;20541;-69
2021/04/25 14:31:19;;;;;;;3.15;1.62;;;;;;;;;;4099662;34;20505;-70
2021/04/25 14:33:45;;;;;;;6.07;2.00;;;;;;;;;;4099329;34;20199;-69
2021/04/25 14:36:11;;;;;;;2.35;1.50;;;;;;;;;;4119104;34;20167;-73
2021/04/25 14:38:39;;;;;;;2.37;1.73;;;;;;;;;;4124728;34;20096;-70
2021/04/25 14:41:05;;;;;;;3.40;1.80;;;;;;;;;;4114279;34;20110;-73
2021/04/25 14:43:32;;;;;;;2.78;1.70;;;;;;;;;;4125903;34;20092;-74
2021/04/25 14:45:59;;;;;;;3.37;1.62;;;;;;;;;;4122778;34;20111;-72
2021/04/25 14:48:26;;;;;;;9.20;1.70;;;;;;;;;;4123489;34;20119;-73
2021/04/25 14:50:53;;;;;;;1.83;1.60;;;;;;;;;;4122367;34;20527;-72
2021/04/25 14:53:19;;;;;;;4.68;1.85;;;;;;;;;;4112074;34;20112;-71
2021/04/25 14:55:44;;;;;;;3.87;1.48;;;;;;;;;;4124693;34;20121;-71
2021/04/25 14:58:11;;;;;;;2.03;1.50;;;;;;;;;;4123195;34;20105;-70
2021/04/25 15:00:37;;;;;;;3.40;1.60;;;;;;;;;;4123845;34;20128;-71
2021/04/25 15:03:06;;;;;;;1.73;1.50;;;;;;;;;;4124343;34;20192;-71
2021/04/25 15:05:32;;;;;;;3.15;1.67;;;;;;;;;;4124624;34;20111;-70
2021/04/25 15:07:58;;;;;;;1.73;1.60;;;;;;;;;;4124555;34;20119;-69
2021/04/25 15:10:25;;;;;;;4.40;1.55;;;;;;;;;;4124668;34;20619;-70
2021/04/25 15:12:53;;;;;;;3.45;1.73;;;;;;;;;;4124789;34;20112;-71
2021/04/25 15:15:19;;;;;;;2.22;1.70;;;;;;;;;;4112565;34;20440;-71